sensor_id;sensor_type;location;lat;lon;timestamp;temperature;humidity
15556;DHT22;7879;48.660;9.116;2023-03-01T00:01:04;-0.20;99.90
15556;DHT22;7879;48.660;9.116;2023-03-01T00:03:32;-0.20;99.90
15556;DHT22;7879;48.660;9.116;2023-03-01T00:05:59;-0.30;99.90
15556;DHT22;7879;48.660;9.116;2023-03-01T00:08:27;-0.30;99.90
15556;DHT22;7879;48.660;9.116;2023-03-01T00:13:41;-0.30;99.90
15556;DHT22;7879;48.660;9.116;2023-03-01T00:16:18;-0.40;99.90
15556;DHT22;7879;48.660;9.116;2023-03-01T00:18:45;-0.40;99.90
15556;DHT22;7879;48.660;9.116;2023-03-01T00:21:12;-0.50;99.90
15556;DHT22;7879;48.660;9.116;2023-03-01T00:23:40;-0.50;99.90
15556;DHT22;7879;48.660;9.116;2023-03-01T00:26:09;-0.50;99.90
15556;DHT22;7879;48.660;9.116;2023-03-01T00:28:36;-0.50;99.90
15556;DHT22;7879;48.660;9.116;2023-03-01T00:31:08;-0.50;99.90
15556;DHT22;7879;48.660;9.116;2023-03-01T00:33:36;-0.50;99.90
15556;DHT22;7879;48.660;9.116;2023-03-01T00:36:03;-0.50;99.90
15556;DHT22;7879;48.660;9.116;2023-03-01T00:38:30;-0.50;99.90
15556;DHT22;7879;48.660;9.116;2023-03-01T00:41:09;-0.70;99.90
15556;DHT22;7879;48.660;9.116;2023-03-01T00:43:36;-0.80;99.90
15556;DHT22;7879;48.660;9.116;2023-03-01T00:46:09;-0.90;99.90
15556;DHT22;7879;48.660;9.116;2023-03-01T00:48:36;-1.00;99.90
15556;DHT22;7879;48.660;9.116;2023-03-01T00:51:24;-1.00;99.90
15556;DHT22;7879;48.660;9.116;2023-03-01T00:53:54;-0.90;99.90
15556;DHT22;7879;48.660;9.116;2023-03-01T00:56:21;-1.00;99.90
15556;DHT22;7879;48.660;9.116;2023-03-01T00:58:48;-1.00;99.90
15556;DHT22;7879;48.660;9.116;2023-03-01T01:01:20;-1.10;99.90
15556;DHT22;7879;48.660;9.116;2023-03-01T01:06:25;-1.10;99.90
15556;DHT22;7879;48.660;9.116;2023-03-01T01:08:52;-1.20;99.90
15556;DHT22;7879;48.660;9.116;2023-03-01T01:11:21;-1.30;99.90
15556;DHT22;7879;48.660;9.116;2023-03-01T01:13:48;-1.30;99.90
15556;DHT22;7879;48.660;9.116;2023-03-01T01:16:16;-1.20;99.90
15556;DHT22;7879;48.660;9.116;2023-03-01T01:18:44;-1.20;99.90
15556;DHT22;7879;48.660;9.116;2023-03-01T01:21:14;-1.10;99.90
15556;DHT22;7879;48.660;9.116;2023-03-01T01:23:43;-1.20;99.90
15556;DHT22;7879;48.660;9.116;2023-03-01T01:26:15;-1.20;99.90
15556;DHT22;7879;48.660;9.116;2023-03-01T01:28:43;-1.20;99.90
15556;DHT22;7879;48.660;9.116;2023-03-01T01:31:10;-1.20;99.90
15556;DHT22;7879;48.660;9.116;2023-03-01T01:33:37;-1.30;99.90
15556;DHT22;7879;48.660;9.116;2023-03-01T01:36:07;-1.20;99.90
15556;DHT22;7879;48.660;9.116;2023-03-01T01:38:35;-1.30;99.90
15556;DHT22;7879;48.660;9.116;2023-03-01T01:41:03;-1.20;99.90
15556;DHT22;7879;48.660;9.116;2023-03-01T01:43:37;-1.20;99.90
15556;DHT22;7879;48.660;9.116;2023-03-01T01:46:10;-1.30;99.90
15556;DHT22;7879;48.660;9.116;2023-03-01T01:48:45;-1.30;99.90
15556;DHT22;7879;48.660;9.116;2023-03-01T01:51:19;-1.30;99.90
15556;DHT22;7879;48.660;9.116;2023-03-01T01:53:53;-1.30;99.90
15556;DHT22;7879;48.660;9.116;2023-03-01T01:56:23;-1.20;99.90
15556;DHT22;7879;48.660;9.116;2023-03-01T01:58:52;-1.20;99.90
15556;DHT22;7879;48.660;9.116;2023-03-01T02:01:19;-1.20;99.90
15556;DHT22;7879;48.660;9.116;2023-03-01T02:03:47;-1.20;99.90
15556;DHT22;7879;48.660;9.116;2023-03-01T02:06:38;-1.20;99.90
15556;DHT22;7879;48.660;9.116;2023-03-01T02:09:13;-1.20;99.90
15556;DHT22;7879;48.660;9.116;2023-03-01T02:11:40;-1.10;99.90
15556;DHT22;7879;48.660;9.116;2023-03-01T02:14:07;-1.20;99.90
15556;DHT22;7879;48.660;9.116;2023-03-01T02:16:35;-1.20;99.90
15556;DHT22;7879;48.660;9.116;2023-03-01T02:19:04;-1.20;99.90
15556;DHT22;7879;48.660;9.116;2023-03-01T02:21:45;-1.10;99.90
15556;DHT22;7879;48.660;9.116;2023-03-01T02:24:23;-1.10;99.90
15556;DHT22;7879;48.660;9.116;2023-03-01T02:26:55;-1.10;99.90
15556;DHT22;7879;48.660;9.116;2023-03-01T02:29:26;-1.10;99.90
15556;DHT22;7879;48.660;9.116;2023-03-01T02:31:54;-1.10;99.90
15556;DHT22;7879;48.660;9.116;2023-03-01T02:34:24;-1.10;99.90
15556;DHT22;7879;48.660;9.116;2023-03-01T02:36:56;-1.10;99.90
15556;DHT22;7879;48.660;9.116;2023-03-01T02:39:30;-1.10;99.90
15556;DHT22;7879;48.660;9.116;2023-03-01T02:41:58;-1.10;99.90
15556;DHT22;7879;48.660;9.116;2023-03-01T02:44:26;-1.10;99.90
15556;DHT22;7879;48.660;9.116;2023-03-01T02:46:56;-1.10;99.90
15556;DHT22;7879;48.660;9.116;2023-03-01T02:49:28;-1.10;99.90
15556;DHT22;7879;48.660;9.116;2023-03-01T02:52:17;-1.10;99.90
15556;DHT22;7879;48.660;9.116;2023-03-01T02:55:03;-1.10;99.90
15556;DHT22;7879;48.660;9.116;2023-03-01T02:57:32;-1.10;99.90
15556;DHT22;7879;48.660;9.116;2023-03-01T03:00:06;-1.10;99.90
15556;DHT22;7879;48.660;9.116;2023-03-01T03:02:34;-1.00;99.90
15556;DHT22;7879;48.660;9.116;2023-03-01T03:05:16;-1.00;99.90
15556;DHT22;7879;48.660;9.116;2023-03-01T03:07:45;-1.00;99.90
15556;DHT22;7879;48.660;9.116;2023-03-01T03:10:21;-1.10;99.90
15556;DHT22;7879;48.660;9.116;2023-03-01T03:12:50;-1.10;99.90
15556;DHT22;7879;48.660;9.116;2023-03-01T03:15:18;-1.20;99.90
15556;DHT22;7879;48.660;9.116;2023-03-01T03:17:47;-1.10;99.90
15556;DHT22;7879;48.660;9.116;2023-03-01T03:20:16;-1.10;99.90
15556;DHT22;7879;48.660;9.116;2023-03-01T03:22:50;-1.10;99.90
15556;DHT22;7879;48.660;9.116;2023-03-01T03:25:18;-1.10;99.90
15556;DHT22;7879;48.660;9.116;2023-03-01T03:27:47;-1.10;99.90
15556;DHT22;7879;48.660;9.116;2023-03-01T03:30:17;-1.10;99.90
15556;DHT22;7879;48.660;9.116;2023-03-01T03:32:46;-1.10;99.90
15556;DHT22;7879;48.660;9.116;2023-03-01T03:35:31;-1.10;99.90
15556;DHT22;7879;48.660;9.116;2023-03-01T03:38:03;-1.20;99.90
15556;DHT22;7879;48.660;9.116;2023-03-01T03:40:37;-1.10;99.90
15556;DHT22;7879;48.660;9.116;2023-03-01T03:43:07;-1.10;99.90
15556;DHT22;7879;48.660;9.116;2023-03-01T03:45:35;-1.10;99.90
15556;DHT22;7879;48.660;9.116;2023-03-01T03:48:04;-1.10;99.90
15556;DHT22;7879;48.660;9.116;2023-03-01T03:50:32;-1.10;99.90
15556;DHT22;7879;48.660;9.116;2023-03-01T03:53:04;-1.10;99.90
15556;DHT22;7879;48.660;9.116;2023-03-01T03:55:32;-1.00;99.90
15556;DHT22;7879;48.660;9.116;2023-03-01T03:58:01;-1.00;99.90
15556;DHT22;7879;48.660;9.116;2023-03-01T04:00:35;-1.00;99.90
15556;DHT22;7879;48.660;9.116;2023-03-01T04:03:02;-1.00;99.90
15556;DHT22;7879;48.660;9.116;2023-03-01T04:05:29;-1.00;99.90
15556;DHT22;7879;48.660;9.116;2023-03-01T04:07:57;-1.00;99.90
15556;DHT22;7879;48.660;9.116;2023-03-01T04:10:37;-1.00;99.90
15556;DHT22;7879;48.660;9.116;2023-03-01T04:13:09;-1.00;99.90
15556;DHT22;7879;48.660;9.116;2023-03-01T04:15:36;-1.00;99.90
15556;DHT22;7879;48.660;9.116;2023-03-01T04:18:03;-1.00;99.90
15556;DHT22;7879;48.660;9.116;2023-03-01T04:20:34;-1.00;99.90
15556;DHT22;7879;48.660;9.116;2023-03-01T04:25:41;-1.00;99.90
15556;DHT22;7879;48.660;9.116;2023-03-01T04:28:09;-1.00;99.90
15556;DHT22;7879;48.660;9.116;2023-03-01T04:30:37;-0.90;99.90
15556;DHT22;7879;48.660;9.116;2023-03-01T04:33:06;-0.90;99.90
15556;DHT22;7879;48.660;9.116;2023-03-01T04:35:34;-0.90;99.90
15556;DHT22;7879;48.660;9.116;2023-03-01T04:38:01;-0.90;99.90
15556;DHT22;7879;48.660;9.116;2023-03-01T04:40:28;-0.90;99.90
15556;DHT22;7879;48.660;9.116;2023-03-01T04:42:55;-0.90;99.90
15556;DHT22;7879;48.660;9.116;2023-03-01T04:45:22;-0.90;99.90
15556;DHT22;7879;48.660;9.116;2023-03-01T04:47:48;-0.80;99.90
15556;DHT22;7879;48.660;9.116;2023-03-01T04:50:16;-0.90;99.90
15556;DHT22;7879;48.660;9.116;2023-03-01T04:52:44;-0.90;99.90
15556;DHT22;7879;48.660;9.116;2023-03-01T04:55:11;-0.90;99.90
15556;DHT22;7879;48.660;9.116;2023-03-01T04:57:38;-0.80;99.90
15556;DHT22;7879;48.660;9.116;2023-03-01T05:00:07;-0.80;99.90
15556;DHT22;7879;48.660;9.116;2023-03-01T05:05:15;-0.80;99.90
15556;DHT22;7879;48.660;9.116;2023-03-01T05:07:42;-0.90;99.90
15556;DHT22;7879;48.660;9.116;2023-03-01T05:10:09;-0.90;99.90
15556;DHT22;7879;48.660;9.116;2023-03-01T05:12:36;-0.80;99.90
15556;DHT22;7879;48.660;9.116;2023-03-01T05:15:04;-0.90;99.90
15556;DHT22;7879;48.660;9.116;2023-03-01T05:17:34;-0.90;99.90
15556;DHT22;7879;48.660;9.116;2023-03-01T05:20:01;-0.90;99.90
15556;DHT22;7879;48.660;9.116;2023-03-01T05:22:33;-0.80;99.90
15556;DHT22;7879;48.660;9.116;2023-03-01T05:25:00;-0.80;99.90
15556;DHT22;7879;48.660;9.116;2023-03-01T05:27:27;-0.80;99.90
15556;DHT22;7879;48.660;9.116;2023-03-01T05:29:54;-0.80;99.90
15556;DHT22;7879;48.660;9.116;2023-03-01T05:32:20;-0.80;99.90
15556;DHT22;7879;48.660;9.116;2023-03-01T05:34:47;-0.90;99.90
15556;DHT22;7879;48.660;9.116;2023-03-01T05:37:14;-0.80;99.90
15556;DHT22;7879;48.660;9.116;2023-03-01T05:42:11;-0.80;99.90
15556;DHT22;7879;48.660;9.116;2023-03-01T05:44:38;-0.80;99.90
15556;DHT22;7879;48.660;9.116;2023-03-01T05:47:05;-0.70;99.90
15556;DHT22;7879;48.660;9.116;2023-03-01T05:49:31;-0.70;99.90
15556;DHT22;7879;48.660;9.116;2023-03-01T05:51:58;-0.80;99.90
15556;DHT22;7879;48.660;9.116;2023-03-01T05:54:25;-0.80;99.90
15556;DHT22;7879;48.660;9.116;2023-03-01T05:56:52;-0.80;99.90
15556;DHT22;7879;48.660;9.116;2023-03-01T05:59:19;-0.80;99.90
15556;DHT22;7879;48.660;9.116;2023-03-01T06:01:46;-0.80;99.90
15556;DHT22;7879;48.660;9.116;2023-03-01T06:04:12;-0.70;99.90
15556;DHT22;7879;48.660;9.116;2023-03-01T06:06:39;-0.70;99.90
15556;DHT22;7879;48.660;9.116;2023-03-01T06:09:07;-0.70;99.90
15556;DHT22;7879;48.660;9.116;2023-03-01T06:11:36;-0.70;99.90
15556;DHT22;7879;48.660;9.116;2023-03-01T06:14:03;-0.70;99.90
15556;DHT22;7879;48.660;9.116;2023-03-01T06:16:30;-0.70;99.90
15556;DHT22;7879;48.660;9.116;2023-03-01T06:18:57;-0.70;99.90
15556;DHT22;7879;48.660;9.116;2023-03-01T06:21:24;-0.70;99.90
15556;DHT22;7879;48.660;9.116;2023-03-01T06:23:51;-0.70;99.90
15556;DHT22;7879;48.660;9.116;2023-03-01T06:26:18;-0.70;99.90
15556;DHT22;7879;48.660;9.116;2023-03-01T06:28:45;-0.70;99.90
15556;DHT22;7879;48.660;9.116;2023-03-01T06:31:13;-0.70;99.90
15556;DHT22;7879;48.660;9.116;2023-03-01T06:33:39;-0.60;99.90
15556;DHT22;7879;48.660;9.116;2023-03-01T06:36:07;-0.60;99.90
15556;DHT22;7879;48.660;9.116;2023-03-01T06:38:34;-0.60;99.90
15556;DHT22;7879;48.660;9.116;2023-03-01T06:41:01;-0.60;99.90
15556;DHT22;7879;48.660;9.116;2023-03-01T06:43:28;-0.60;99.90
15556;DHT22;7879;48.660;9.116;2023-03-01T06:45:55;-0.60;99.90
15556;DHT22;7879;48.660;9.116;2023-03-01T06:48:22;-0.50;99.90
15556;DHT22;7879;48.660;9.116;2023-03-01T06:50:49;-0.60;99.90
15556;DHT22;7879;48.660;9.116;2023-03-01T06:53:15;-0.50;99.90
15556;DHT22;7879;48.660;9.116;2023-03-01T06:55:42;-0.50;99.90
15556;DHT22;7879;48.660;9.116;2023-03-01T06:58:09;-0.50;99.90
15556;DHT22;7879;48.660;9.116;2023-03-01T07:00:37;-0.50;99.90
15556;DHT22;7879;48.660;9.116;2023-03-01T07:03:06;-0.50;99.90
15556;DHT22;7879;48.660;9.116;2023-03-01T07:05:33;-0.40;99.90
15556;DHT22;7879;48.660;9.116;2023-03-01T07:08:00;-0.50;99.90
15556;DHT22;7879;48.660;9.116;2023-03-01T07:10:27;-0.50;99.90
15556;DHT22;7879;48.660;9.116;2023-03-01T07:12:57;-0.40;99.90
15556;DHT22;7879;48.660;9.116;2023-03-01T07:15:25;-0.40;99.90
15556;DHT22;7879;48.660;9.116;2023-03-01T07:17:52;-0.40;99.90
15556;DHT22;7879;48.660;9.116;2023-03-01T07:20:19;-0.40;99.90
15556;DHT22;7879;48.660;9.116;2023-03-01T07:22:52;-0.40;99.90
15556;DHT22;7879;48.660;9.116;2023-03-01T07:25:19;-0.40;99.90
15556;DHT22;7879;48.660;9.116;2023-03-01T07:27:50;-0.40;99.90
15556;DHT22;7879;48.660;9.116;2023-03-01T07:30:18;-0.40;99.90
15556;DHT22;7879;48.660;9.116;2023-03-01T07:32:45;-0.40;99.90
15556;DHT22;7879;48.660;9.116;2023-03-01T07:35:12;-0.40;99.90
15556;DHT22;7879;48.660;9.116;2023-03-01T07:37:39;-0.40;99.90
15556;DHT22;7879;48.660;9.116;2023-03-01T07:40:06;-0.40;99.90
15556;DHT22;7879;48.660;9.116;2023-03-01T07:42:34;-0.30;99.90
15556;DHT22;7879;48.660;9.116;2023-03-01T07:45:00;-0.30;99.90
15556;DHT22;7879;48.660;9.116;2023-03-01T07:47:27;-0.30;99.90
15556;DHT22;7879;48.660;9.116;2023-03-01T07:49:54;-0.30;99.90
15556;DHT22;7879;48.660;9.116;2023-03-01T07:52:20;-0.20;99.90
15556;DHT22;7879;48.660;9.116;2023-03-01T07:54:47;-0.20;99.90
15556;DHT22;7879;48.660;9.116;2023-03-01T07:57:14;-0.20;99.90
15556;DHT22;7879;48.660;9.116;2023-03-01T07:59:41;-0.10;99.90
15556;DHT22;7879;48.660;9.116;2023-03-01T08:02:09;-0.10;99.90
15556;DHT22;7879;48.660;9.116;2023-03-01T08:04:36;-0.10;99.90
15556;DHT22;7879;48.660;9.116;2023-03-01T08:07:05;-0.10;99.90
15556;DHT22;7879;48.660;9.116;2023-03-01T08:09:34;-0.10;99.90
15556;DHT22;7879;48.660;9.116;2023-03-01T08:12:02;-0.10;99.90
15556;DHT22;7879;48.660;9.116;2023-03-01T08:14:29;0.00;99.90
15556;DHT22;7879;48.660;9.116;2023-03-01T08:16:56;0.00;99.90
15556;DHT22;7879;48.660;9.116;2023-03-01T08:19:23;0.10;99.90
15556;DHT22;7879;48.660;9.116;2023-03-01T08:21:50;0.20;99.90
15556;DHT22;7879;48.660;9.116;2023-03-01T08:24:17;0.10;99.90
15556;DHT22;7879;48.660;9.116;2023-03-01T08:26:43;0.20;99.90
15556;DHT22;7879;48.660;9.116;2023-03-01T08:29:10;0.20;99.90
15556;DHT22;7879;48.660;9.116;2023-03-01T08:31:39;0.30;99.90
15556;DHT22;7879;48.660;9.116;2023-03-01T08:34:09;0.30;99.90
15556;DHT22;7879;48.660;9.116;2023-03-01T08:36:38;0.30;99.90
15556;DHT22;7879;48.660;9.116;2023-03-01T08:39:07;0.30;99.90
15556;DHT22;7879;48.660;9.116;2023-03-01T08:41:34;0.40;99.90
15556;DHT22;7879;48.660;9.116;2023-03-01T08:44:01;0.50;99.90
15556;DHT22;7879;48.660;9.116;2023-03-01T08:46:40;0.50;99.90
15556;DHT22;7879;48.660;9.116;2023-03-01T08:49:09;0.60;99.90
15556;DHT22;7879;48.660;9.116;2023-03-01T08:51:36;0.60;99.90
15556;DHT22;7879;48.660;9.116;2023-03-01T08:54:09;0.60;99.90
15556;DHT22;7879;48.660;9.116;2023-03-01T08:56:37;0.60;99.90
15556;DHT22;7879;48.660;9.116;2023-03-01T08:59:04;0.70;99.90
15556;DHT22;7879;48.660;9.116;2023-03-01T09:01:31;0.80;99.90
15556;DHT22;7879;48.660;9.116;2023-03-01T09:03:58;0.80;99.90
15556;DHT22;7879;48.660;9.116;2023-03-01T09:06:25;0.90;99.90
15556;DHT22;7879;48.660;9.116;2023-03-01T09:08:52;0.90;99.90
15556;DHT22;7879;48.660;9.116;2023-03-01T09:11:20;1.00;99.90
15556;DHT22;7879;48.660;9.116;2023-03-01T09:13:48;1.00;99.90
15556;DHT22;7879;48.660;9.116;2023-03-01T09:16:17;1.00;99.90
15556;DHT22;7879;48.660;9.116;2023-03-01T09:18:45;1.20;99.90
15556;DHT22;7879;48.660;9.116;2023-03-01T09:21:14;1.30;99.90
15556;DHT22;7879;48.660;9.116;2023-03-01T09:23:44;1.40;99.90
15556;DHT22;7879;48.660;9.116;2023-03-01T09:26:20;1.40;99.90
15556;DHT22;7879;48.660;9.116;2023-03-01T09:28:53;1.50;99.90
15556;DHT22;7879;48.660;9.116;2023-03-01T09:31:22;1.80;99.90
15556;DHT22;7879;48.660;9.116;2023-03-01T09:33:51;1.90;99.90
15556;DHT22;7879;48.660;9.116;2023-03-01T09:36:21;2.00;99.90
15556;DHT22;7879;48.660;9.116;2023-03-01T09:38:48;2.00;99.90
15556;DHT22;7879;48.660;9.116;2023-03-01T09:46:58;2.20;99.90
15556;DHT22;7879;48.660;9.116;2023-03-01T09:49:31;2.30;99.90
15556;DHT22;7879;48.660;9.116;2023-03-01T09:52:09;2.30;99.90
15556;DHT22;7879;48.660;9.116;2023-03-01T09:54:38;2.50;99.90
15556;DHT22;7879;48.660;9.116;2023-03-01T09:57:06;2.70;99.90
15556;DHT22;7879;48.660;9.116;2023-03-01T09:59:59;2.80;99.90
15556;DHT22;7879;48.660;9.116;2023-03-01T10:02:38;3.00;99.90
15556;DHT22;7879;48.660;9.116;2023-03-01T10:11:28;3.50;99.90
15556;DHT22;7879;48.660;9.116;2023-03-01T10:14:27;3.70;99.90
15556;DHT22;7879;48.660;9.116;2023-03-01T10:17:06;3.60;99.90
15556;DHT22;7879;48.660;9.116;2023-03-01T10:19:43;3.60;99.90
15556;DHT22;7879;48.660;9.116;2023-03-01T10:22:13;3.80;99.90
15556;DHT22;7879;48.660;9.116;2023-03-01T10:24:41;4.10;99.90
15556;DHT22;7879;48.660;9.116;2023-03-01T10:27:19;4.40;99.90
15556;DHT22;7879;48.660;9.116;2023-03-01T10:32:14;4.70;99.90
15556;DHT22;7879;48.660;9.116;2023-03-01T10:34:42;5.00;99.90
15556;DHT22;7879;48.660;9.116;2023-03-01T10:37:20;5.00;99.90
15556;DHT22;7879;48.660;9.116;2023-03-01T10:40:10;4.90;99.90
15556;DHT22;7879;48.660;9.116;2023-03-01T10:42:47;5.00;99.90
15556;DHT22;7879;48.660;9.116;2023-03-01T10:48:05;5.10;99.90
15556;DHT22;7879;48.660;9.116;2023-03-01T10:50:32;5.30;99.90
15556;DHT22;7879;48.660;9.116;2023-03-01T10:53:04;5.20;99.80
15556;DHT22;7879;48.660;9.116;2023-03-01T10:55:36;5.10;99.80
15556;DHT22;7879;48.660;9.116;2023-03-01T10:58:18;5.10;99.90
15556;DHT22;7879;48.660;9.116;2023-03-01T11:00:50;5.30;99.90
15556;DHT22;7879;48.660;9.116;2023-03-01T11:05:58;5.50;99.60
15556;DHT22;7879;48.660;9.116;2023-03-01T11:08:40;5.60;99.30
15556;DHT22;7879;48.660;9.116;2023-03-01T11:11:30;5.70;99.20
15556;DHT22;7879;48.660;9.116;2023-03-01T11:14:25;5.90;98.80
15556;DHT22;7879;48.660;9.116;2023-03-01T11:22:55;6.40;98.50
15556;DHT22;7879;48.660;9.116;2023-03-01T11:25:31;6.50;98.40
15556;DHT22;7879;48.660;9.116;2023-03-01T11:28:00;6.50;97.90
15556;DHT22;7879;48.660;9.116;2023-03-01T11:30:32;6.50;98.10
15556;DHT22;7879;48.660;9.116;2023-03-01T11:36:31;6.40;97.70
15556;DHT22;7879;48.660;9.116;2023-03-01T11:42:06;6.50;97.30
15556;DHT22;7879;48.660;9.116;2023-03-01T11:44:48;6.50;97.30
15556;DHT22;7879;48.660;9.116;2023-03-01T11:47:31;6.60;97.30
15556;DHT22;7879;48.660;9.116;2023-03-01T12:01:12;6.60;97.30
15556;DHT22;7879;48.660;9.116;2023-03-01T12:10:33;6.80;96.90
15556;DHT22;7879;48.660;9.116;2023-03-01T12:16:20;6.80;96.30
15556;DHT22;7879;48.660;9.116;2023-03-01T12:18:44;6.70;96.60
15556;DHT22;7879;48.660;9.116;2023-03-01T12:24:14;6.50;97.10
15556;DHT22;7879;48.660;9.116;2023-03-01T12:29:29;6.70;96.90
15556;DHT22;7879;48.660;9.116;2023-03-01T12:43:26;6.60;97.40
15556;DHT22;7879;48.660;9.116;2023-03-01T12:46:21;6.60;96.90
15556;DHT22;7879;48.660;9.116;2023-03-01T12:49:11;6.60;96.50
15556;DHT22;7879;48.660;9.116;2023-03-01T12:51:40;6.50;96.70
15556;DHT22;7879;48.660;9.116;2023-03-01T12:54:16;6.40;96.70
15556;DHT22;7879;48.660;9.116;2023-03-01T12:56:43;6.40;96.70
15556;DHT22;7879;48.660;9.116;2023-03-01T12:59:35;6.40;96.80
15556;DHT22;7879;48.660;9.116;2023-03-01T13:07:40;6.60;97.10
15556;DHT22;7879;48.660;9.116;2023-03-01T13:10:34;6.60;96.80
15556;DHT22;7879;48.660;9.116;2023-03-01T13:13:14;6.70;96.90
15556;DHT22;7879;48.660;9.116;2023-03-01T13:15:45;6.60;96.50
15556;DHT22;7879;48.660;9.116;2023-03-01T13:20:51;6.60;96.90
15556;DHT22;7879;48.660;9.116;2023-03-01T13:33:54;6.60;96.90
15556;DHT22;7879;48.660;9.116;2023-03-01T13:44:30;6.90;96.80
15556;DHT22;7879;48.660;9.116;2023-03-01T13:52:37;6.90;96.30
15556;DHT22;7879;48.660;9.116;2023-03-01T13:57:51;6.90;96.20
15556;DHT22;7879;48.660;9.116;2023-03-01T14:01:00;6.80;96.40
15556;DHT22;7879;48.660;9.116;2023-03-01T14:03:27;6.80;96.40
15556;DHT22;7879;48.660;9.116;2023-03-01T14:06:05;6.80;96.40
15556;DHT22;7879;48.660;9.116;2023-03-01T14:08:49;6.80;96.50
15556;DHT22;7879;48.660;9.116;2023-03-01T14:19:46;7.00;96.50
15556;DHT22;7879;48.660;9.116;2023-03-01T14:22:25;7.00;96.10
15556;DHT22;7879;48.660;9.116;2023-03-01T14:24:59;7.00;96.50
15556;DHT22;7879;48.660;9.116;2023-03-01T14:27:30;7.00;96.20
15556;DHT22;7879;48.660;9.116;2023-03-01T14:30:04;7.00;96.20
15556;DHT22;7879;48.660;9.116;2023-03-01T14:32:36;7.00;96.20
15556;DHT22;7879;48.660;9.116;2023-03-01T14:35:18;7.00;96.30
15556;DHT22;7879;48.660;9.116;2023-03-01T14:37:45;7.10;96.30
15556;DHT22;7879;48.660;9.116;2023-03-01T14:40:22;7.00;96.20
15556;DHT22;7879;48.660;9.116;2023-03-01T14:42:49;6.90;96.20
15556;DHT22;7879;48.660;9.116;2023-03-01T14:45:16;6.90;96.00
15556;DHT22;7879;48.660;9.116;2023-03-01T14:47:44;6.80;96.10
15556;DHT22;7879;48.660;9.116;2023-03-01T14:50:25;6.80;96.30
15556;DHT22;7879;48.660;9.116;2023-03-01T14:53:04;6.80;96.40
15556;DHT22;7879;48.660;9.116;2023-03-01T14:55:41;6.80;96.60
15556;DHT22;7879;48.660;9.116;2023-03-01T14:58:17;6.80;96.70
15556;DHT22;7879;48.660;9.116;2023-03-01T15:01:05;6.80;96.80
15556;DHT22;7879;48.660;9.116;2023-03-01T15:03:43;6.80;96.60
15556;DHT22;7879;48.660;9.116;2023-03-01T15:06:14;6.80;96.50
15556;DHT22;7879;48.660;9.116;2023-03-01T15:08:45;6.80;96.60
15556;DHT22;7879;48.660;9.116;2023-03-01T15:13:41;6.80;96.80
15556;DHT22;7879;48.660;9.116;2023-03-01T15:16:45;6.70;96.80
15556;DHT22;7879;48.660;9.116;2023-03-01T15:19:06;6.80;96.90
15556;DHT22;7879;48.660;9.116;2023-03-01T15:21:35;6.80;96.90
15556;DHT22;7879;48.660;9.116;2023-03-01T15:26:57;6.80;96.80
15556;DHT22;7879;48.660;9.116;2023-03-01T15:29:30;6.80;96.80
15556;DHT22;7879;48.660;9.116;2023-03-01T15:32:05;6.80;96.80
15556;DHT22;7879;48.660;9.116;2023-03-01T15:34:36;6.70;96.70
15556;DHT22;7879;48.660;9.116;2023-03-01T15:37:05;6.70;96.80
15556;DHT22;7879;48.660;9.116;2023-03-01T15:39:40;6.70;96.90
15556;DHT22;7879;48.660;9.116;2023-03-01T15:42:35;6.70;97.00
15556;DHT22;7879;48.660;9.116;2023-03-01T15:47:48;6.70;97.10
15556;DHT22;7879;48.660;9.116;2023-03-01T15:50:22;6.60;96.90
15556;DHT22;7879;48.660;9.116;2023-03-01T15:52:50;6.60;97.00
15556;DHT22;7879;48.660;9.116;2023-03-01T15:55:22;6.60;96.90
15556;DHT22;7879;48.660;9.116;2023-03-01T15:58:01;6.60;97.00
15556;DHT22;7879;48.660;9.116;2023-03-01T16:00:50;6.60;97.00
15556;DHT22;7879;48.660;9.116;2023-03-01T16:03:28;6.60;96.90
15556;DHT22;7879;48.660;9.116;2023-03-01T16:05:55;6.50;97.00
15556;DHT22;7879;48.660;9.116;2023-03-01T16:08:22;6.50;96.90
15556;DHT22;7879;48.660;9.116;2023-03-01T16:10:50;6.50;97.00
15556;DHT22;7879;48.660;9.116;2023-03-01T16:13:18;6.40;97.00
15556;DHT22;7879;48.660;9.116;2023-03-01T16:15:45;6.50;97.20
15556;DHT22;7879;48.660;9.116;2023-03-01T16:18:12;6.40;97.00
15556;DHT22;7879;48.660;9.116;2023-03-01T16:20:39;6.40;97.10
15556;DHT22;7879;48.660;9.116;2023-03-01T16:23:10;6.50;97.10
15556;DHT22;7879;48.660;9.116;2023-03-01T16:25:37;6.40;97.20
15556;DHT22;7879;48.660;9.116;2023-03-01T16:28:04;6.30;97.30
15556;DHT22;7879;48.660;9.116;2023-03-01T16:30:37;6.30;97.30
15556;DHT22;7879;48.660;9.116;2023-03-01T16:33:04;6.30;97.40
15556;DHT22;7879;48.660;9.116;2023-03-01T16:35:50;6.20;97.40
15556;DHT22;7879;48.660;9.116;2023-03-01T16:38:17;6.20;97.50
15556;DHT22;7879;48.660;9.116;2023-03-01T16:40:47;6.10;97.50
15556;DHT22;7879;48.660;9.116;2023-03-01T16:43:15;6.00;97.50
15556;DHT22;7879;48.660;9.116;2023-03-01T16:45:42;6.00;97.60
15556;DHT22;7879;48.660;9.116;2023-03-01T16:48:11;5.90;97.60
15556;DHT22;7879;48.660;9.116;2023-03-01T16:50:38;5.80;97.60
15556;DHT22;7879;48.660;9.116;2023-03-01T16:53:05;6.00;97.60
15556;DHT22;7879;48.660;9.116;2023-03-01T16:55:32;5.80;97.70
15556;DHT22;7879;48.660;9.116;2023-03-01T16:58:00;5.70;97.70
15556;DHT22;7879;48.660;9.116;2023-03-01T17:00:27;5.70;97.70
15556;DHT22;7879;48.660;9.116;2023-03-01T17:02:55;5.70;97.60
15556;DHT22;7879;48.660;9.116;2023-03-01T17:05:22;5.60;97.70
15556;DHT22;7879;48.660;9.116;2023-03-01T17:07:51;5.60;97.70
15556;DHT22;7879;48.660;9.116;2023-03-01T17:10:17;5.60;97.70
15556;DHT22;7879;48.660;9.116;2023-03-01T17:12:48;5.50;97.70
15556;DHT22;7879;48.660;9.116;2023-03-01T17:15:15;5.50;97.70
15556;DHT22;7879;48.660;9.116;2023-03-01T17:17:41;5.40;97.70
15556;DHT22;7879;48.660;9.116;2023-03-01T17:20:09;5.40;97.80
15556;DHT22;7879;48.660;9.116;2023-03-01T17:22:36;5.30;97.80
15556;DHT22;7879;48.660;9.116;2023-03-01T17:25:03;5.40;97.90
15556;DHT22;7879;48.660;9.116;2023-03-01T17:27:30;5.30;97.70
15556;DHT22;7879;48.660;9.116;2023-03-01T17:30:01;5.30;97.80
15556;DHT22;7879;48.660;9.116;2023-03-01T17:32:28;5.30;97.80
15556;DHT22;7879;48.660;9.116;2023-03-01T17:34:55;5.20;97.90
15556;DHT22;7879;48.660;9.116;2023-03-01T17:37:22;5.20;97.90
15556;DHT22;7879;48.660;9.116;2023-03-01T17:39:49;5.20;98.00
15556;DHT22;7879;48.660;9.116;2023-03-01T17:42:15;5.10;98.00
15556;DHT22;7879;48.660;9.116;2023-03-01T17:44:42;5.10;98.00
15556;DHT22;7879;48.660;9.116;2023-03-01T17:47:10;5.10;98.00
15556;DHT22;7879;48.660;9.116;2023-03-01T17:49:37;5.10;98.10
15556;DHT22;7879;48.660;9.116;2023-03-01T17:52:04;5.00;98.10
15556;DHT22;7879;48.660;9.116;2023-03-01T17:54:31;5.00;98.10
15556;DHT22;7879;48.660;9.116;2023-03-01T17:56:59;5.00;98.10
15556;DHT22;7879;48.660;9.116;2023-03-01T17:59:25;5.00;98.20
15556;DHT22;7879;48.660;9.116;2023-03-01T18:01:57;5.00;98.30
15556;DHT22;7879;48.660;9.116;2023-03-01T18:04:24;4.90;98.30
15556;DHT22;7879;48.660;9.116;2023-03-01T18:06:50;4.90;98.30
15556;DHT22;7879;48.660;9.116;2023-03-01T18:09:17;4.90;98.40
15556;DHT22;7879;48.660;9.116;2023-03-01T18:11:44;4.90;98.60
15556;DHT22;7879;48.660;9.116;2023-03-01T18:14:13;4.80;98.60
15556;DHT22;7879;48.660;9.116;2023-03-01T18:16:40;4.80;98.70
15556;DHT22;7879;48.660;9.116;2023-03-01T18:19:07;4.80;98.80
15556;DHT22;7879;48.660;9.116;2023-03-01T18:21:33;4.70;98.90
15556;DHT22;7879;48.660;9.116;2023-03-01T18:24:00;4.80;98.90
15556;DHT22;7879;48.660;9.116;2023-03-01T18:26:27;4.70;98.90
15556;DHT22;7879;48.660;9.116;2023-03-01T18:28:56;4.70;99.00
15556;DHT22;7879;48.660;9.116;2023-03-01T18:31:24;4.60;99.10